Northbridge, Massachusetts
Current Conditions -  °F | °C
As of 1:54 AM on Thursday 23 Oct 2014 (Local Time) from KORH Reporting Station
Heavy Rain Heavy Rain  
Wind Chill: 37°   Ceiling: 500
Heat Index: 45°   Visibility: 3mi
Dew Point: 43°   Wind: 18mph
Humidity: 93%   Direction: 40°NE
Pressure: 29.8"   Gusts: 26mph
Location:  42.15°N, 71.65°W
Report Text: KORH 230554Z AUTO 04016G23KT 3SM +RA BR BKN005 BKN012 OVC025 07/06 A2980 RMK AO2 PK WND 02029/0501 LTG DSNT NE SLP097 P0036 60081 T00720061 10072 20072 55002
Loading
Personal Weather Stations






























Interactive Weather Map
Tropical Storm Tracking
New forecast layout! Learn more

10-Day Weather Forecast

Advertisements
Track Severe Weather on mobile